Vera Cruz, Brazil
Current Conditions -  °F | °C
As of 8:00 PM on Monday 24 Nov 2014 (Local Time) from SBSM Reporting Station
Few Clouds Few Clouds  
Wind Chill: 88°   Ceiling: Unl
Heat Index: 89°   Visibility: 6mi
Dew Point: 64°   Wind: 5mph
Humidity: 46%   Direction: 210°SSW
Pressure: 29.71"   Gusts: NA
Location:  29.71°S, 52.51°W
Report Text: SBSM 242200Z 21004KT 170V250 9999 FEW030 31/18 Q1006
Loading
Personal Weather Stations






























Interactive Weather Map New forecast layout! Learn more

10-Day Weather Forecast

Advertisements
Track Severe Weather on mobile